createdAt,value
2022-12-05T00:00:09.566Z,4.54
2022-12-05T00:02:57.309Z,4.34
2022-12-05T00:05:25.139Z,4.37
2022-12-05T00:07:52.971Z,4.38
2022-12-05T00:10:20.805Z,4.27
2022-12-05T00:12:49.074Z,4.46
2022-12-05T00:15:17.170Z,4.49
2022-12-05T00:17:44.961Z,4.34
2022-12-05T00:20:12.855Z,4.34
2022-12-05T00:22:40.620Z,4.40
2022-12-05T00:25:09.022Z,4.54
2022-12-05T00:27:36.880Z,4.46
2022-12-05T00:30:05.993Z,4.38
2022-12-05T00:32:33.865Z,4.40
2022-12-05T00:35:01.627Z,4.47
2022-12-05T00:37:29.648Z,4.55
2022-12-05T00:39:57.845Z,4.36
2022-12-05T00:42:25.795Z,4.34
2022-12-05T00:44:53.672Z,4.40
2022-12-05T00:47:21.429Z,4.49
2022-12-05T00:49:49.201Z,4.63
2022-12-05T00:52:17.134Z,4.59
2022-12-05T00:54:44.923Z,4.43
2022-12-05T00:57:12.807Z,4.48
2022-12-05T00:59:40.628Z,4.42
2022-12-05T01:02:08.379Z,4.32
2022-12-05T01:04:36.756Z,4.28
2022-12-05T01:07:04.982Z,4.33
2022-12-05T01:09:32.763Z,4.36
2022-12-05T01:12:00.665Z,4.53
2022-12-05T01:14:29.144Z,4.55
2022-12-05T01:16:57.120Z,4.47
2022-12-05T01:19:32.425Z,4.37
2022-12-05T01:22:00.287Z,4.33
2022-12-05T01:24:29.838Z,4.29
2022-12-05T01:26:58.767Z,4.17
2022-12-05T01:29:28.372Z,4.16
2022-12-05T01:31:56.630Z,4.16
2022-12-05T01:34:24.668Z,4.21
2022-12-05T01:36:52.885Z,4.16
2022-12-05T01:39:20.678Z,4.19
2022-12-05T01:41:50.049Z,4.33
2022-12-05T01:44:17.788Z,4.32
2022-12-05T01:46:51.044Z,4.41
2022-12-05T01:49:37.778Z,4.36
2022-12-05T01:52:18.350Z,4.29
2022-12-05T01:54:48.142Z,4.36
2022-12-05T01:57:16.285Z,4.37
2022-12-05T01:59:47.907Z,4.28
2022-12-05T02:02:16.311Z,4.21
2022-12-05T02:05:04.607Z,4.28
2022-12-05T02:07:33.945Z,4.24
2022-12-05T02:10:01.921Z,4.26
2022-12-05T02:12:29.972Z,4.23
2022-12-05T02:15:09.697Z,4.28
2022-12-05T02:17:49.573Z,4.36
2022-12-05T02:20:32.391Z,4.31
2022-12-05T02:23:27.521Z,4.26
2022-12-05T02:26:13.910Z,4.16
2022-12-05T02:29:13.932Z,4.10
2022-12-05T02:31:51.700Z,4.17
2022-12-05T02:34:31.669Z,4.19
2022-12-05T02:37:11.004Z,4.29
2022-12-05T02:39:41.856Z,4.26
2022-12-05T02:42:21.694Z,4.32
2022-12-05T02:44:59.552Z,4.19
2022-12-05T02:47:31.818Z,4.30
2022-12-05T02:50:00.595Z,4.37
2022-12-05T02:52:30.526Z,4.34
2022-12-05T02:55:00.141Z,4.30
2022-12-05T02:57:28.060Z,4.36
2022-12-05T02:59:56.133Z,4.40
2022-12-05T03:02:27.948Z,4.24
2022-12-05T03:05:02.167Z,4.28
2022-12-05T03:07:31.961Z,4.37
2022-12-05T03:10:05.818Z,4.44
2022-12-05T03:12:49.324Z,4.45
2022-12-05T03:15:22.900Z,4.29
2022-12-05T03:18:13.551Z,4.34
2022-12-05T03:21:16.340Z,4.29
2022-12-05T03:23:58.198Z,4.24
2022-12-05T03:26:42.462Z,4.22
2022-12-05T03:30:06.142Z,4.12
2022-12-05T03:32:44.068Z,4.19
2022-12-05T03:35:36.748Z,4.26
2022-12-05T03:38:35.194Z,4.31
2022-12-05T03:41:23.030Z,4.21
2022-12-05T03:44:29.329Z,4.20
2022-12-05T03:47:06.825Z,4.22
2022-12-05T03:49:45.854Z,4.24
2022-12-05T03:52:19.696Z,4.21
2022-12-05T03:54:53.438Z,4.14
2022-12-05T03:57:35.988Z,4.09
2022-12-05T04:00:04.267Z,4.11
2022-12-05T04:02:52.560Z,4.23
2022-12-05T04:05:48.285Z,4.34
2022-12-05T04:08:26.432Z,4.25
2022-12-05T04:10:59.585Z,4.33
2022-12-05T04:13:33.259Z,4.27
2022-12-05T04:16:29.312Z,4.30
2022-12-05T04:19:09.996Z,4.34
2022-12-05T04:21:43.402Z,4.16
2022-12-05T04:24:39.696Z,4.04
2022-12-05T04:27:11.105Z,4.13
2022-12-05T04:30:02.706Z,4.05
2022-12-05T04:32:37.967Z,4.02
2022-12-05T04:35:14.158Z,4.16
2022-12-05T04:37:45.751Z,4.20
2022-12-05T04:40:23.362Z,4.24
2022-12-05T04:42:54.784Z,4.18
2022-12-05T04:45:25.898Z,4.06
2022-12-05T04:48:00.187Z,4.14
2022-12-05T04:50:32.264Z,4.13
2022-12-05T04:53:02.513Z,4.16
2022-12-05T04:55:33.348Z,4.19
2022-12-05T04:58:24.343Z,4.12
2022-12-05T05:00:56.372Z,4.05
2022-12-05T05:03:36.610Z,4.05
2022-12-05T05:06:04.967Z,3.98
2022-12-05T05:08:32.901Z,3.96
2022-12-05T05:11:18.964Z,3.93
2022-12-05T05:13:47.607Z,3.87
2022-12-05T05:16:25.371Z,3.98
2022-12-05T05:18:54.228Z,3.96
2022-12-05T05:21:31.585Z,3.96
2022-12-05T05:24:00.390Z,4.09
2022-12-05T05:26:30.442Z,4.06
2022-12-05T05:28:58.726Z,4.04
2022-12-05T05:31:27.222Z,4.04
2022-12-05T05:33:57.575Z,4.01
2022-12-05T05:36:28.103Z,4.05
2022-12-05T05:38:58.418Z,4.12
2022-12-05T05:41:31.578Z,4.00
2022-12-05T05:44:01.346Z,3.96
2022-12-05T05:46:32.449Z,3.93
2022-12-05T05:49:02.162Z,3.95
2022-12-05T05:51:30.807Z,4.01
2022-12-05T05:53:59.838Z,4.01
2022-12-05T05:56:29.844Z,4.00
2022-12-05T05:59:08.054Z,3.89
2022-12-05T06:01:36.367Z,3.91
2022-12-05T06:04:05.243Z,3.84
2022-12-05T06:06:33.340Z,3.84
2022-12-05T06:09:01.264Z,3.85
2022-12-05T06:11:29.235Z,3.84
2022-12-05T06:14:00.868Z,3.84
2022-12-05T06:16:30.417Z,3.83
2022-12-05T06:18:58.972Z,3.92
2022-12-05T06:21:27.286Z,3.81
2022-12-05T06:23:55.522Z,3.77
2022-12-05T06:26:23.358Z,3.86
2022-12-05T06:28:51.405Z,3.80
2022-12-05T06:31:22.455Z,3.88
2022-12-05T06:33:50.529Z,3.71
2022-12-05T06:36:21.257Z,3.77
2022-12-05T06:38:49.464Z,3.73
2022-12-05T06:41:20.205Z,3.74
2022-12-05T06:43:48.267Z,3.87
2022-12-05T06:46:16.280Z,3.73
2022-12-05T06:48:44.636Z,3.86
2022-12-05T06:51:15.225Z,3.89
2022-12-05T06:53:43.748Z,3.96
2022-12-05T06:56:14.975Z,4.05
2022-12-05T06:58:44.784Z,3.97
2022-12-05T07:01:37.053Z,3.93
2022-12-05T07:04:07.914Z,3.92
2022-12-05T07:06:35.930Z,3.94
2022-12-05T07:09:04.652Z,3.82
2022-12-05T07:11:32.934Z,3.78
2022-12-05T07:14:07.176Z,3.87
2022-12-05T07:16:38.393Z,3.91
2022-12-05T07:19:06.236Z,3.94
2022-12-05T07:21:34.014Z,4.01
2022-12-05T07:24:02.482Z,3.91
2022-12-05T07:26:33.121Z,3.97
2022-12-05T07:29:02.641Z,4.10
2022-12-05T07:31:30.932Z,4.17
2022-12-05T07:33:58.946Z,4.20
2022-12-05T07:36:26.725Z,4.26
2022-12-05T07:38:57.058Z,4.23
2022-12-05T07:41:29.083Z,4.30
2022-12-05T07:44:00.103Z,4.24
2022-12-05T07:46:29.653Z,4.24
2022-12-05T07:48:58.115Z,4.31
2022-12-05T07:51:25.995Z,4.26
2022-12-05T07:53:53.833Z,4.08
2022-12-05T07:56:21.762Z,4.22
2022-12-05T07:58:50.986Z,4.22
2022-12-05T08:01:24.743Z,4.18
2022-12-05T08:03:54.801Z,4.14
2022-12-05T08:06:26.790Z,4.34
2022-12-05T08:08:55.396Z,4.26
2022-12-05T08:11:25.912Z,4.28
2022-12-05T08:13:54.176Z,4.23
2022-12-05T08:16:30.311Z,4.41
2022-12-05T08:19:01.423Z,4.65
2022-12-05T08:21:29.743Z,4.60
2022-12-05T08:23:58.090Z,4.64
2022-12-05T08:26:30.749Z,4.68
2022-12-05T08:29:07.791Z,4.73
2022-12-05T08:31:40.790Z,4.81
2022-12-05T08:34:11.814Z,4.81
2022-12-05T08:36:40.446Z,4.89
2022-12-05T08:39:12.073Z,4.91
2022-12-05T08:41:39.832Z,4.88
2022-12-05T08:44:08.925Z,4.77
2022-12-05T08:46:38.621Z,4.90
2022-12-05T08:49:06.777Z,4.88
2022-12-05T08:51:34.945Z,4.98
2022-12-05T08:54:04.916Z,5.18
2022-12-05T08:56:35.585Z,5.15
2022-12-05T08:59:06.041Z,5.18
2022-12-05T09:01:38.414Z,5.28
2022-12-05T09:04:07.750Z,5.17
2022-12-05T09:06:36.671Z,5.12
2022-12-05T09:09:07.704Z,5.07
2022-12-05T09:11:40.954Z,5.25
2022-12-05T09:14:08.986Z,5.39
2022-12-05T09:16:39.351Z,5.25
2022-12-05T09:19:14.680Z,5.16
2022-12-05T09:21:43.475Z,5.00
2022-12-05T09:24:13.270Z,5.03
2022-12-05T09:26:41.871Z,5.04
2022-12-05T09:29:16.611Z,5.10
2022-12-05T09:31:47.843Z,5.04
2022-12-05T09:34:18.384Z,5.09
2022-12-05T09:36:55.840Z,5.15
2022-12-05T09:39:29.357Z,5.19
2022-12-05T09:42:24.877Z,5.22
2022-12-05T09:45:12.622Z,5.32
2022-12-05T09:48:01.073Z,5.42
2022-12-05T09:50:32.312Z,5.54
2022-12-05T09:53:09.234Z,5.55
2022-12-05T09:56:09.731Z,5.47
2022-12-05T09:58:47.671Z,5.27
2022-12-05T10:01:15.746Z,5.43
2022-12-05T10:04:08.257Z,5.55
2022-12-05T10:06:51.370Z,5.40
2022-12-05T10:09:28.514Z,5.35
2022-12-05T10:12:15.230Z,5.48
2022-12-05T10:14:52.234Z,5.41
2022-12-05T10:17:35.204Z,5.07
2022-12-05T10:20:16.429Z,4.91
2022-12-05T10:22:50.361Z,4.81
2022-12-05T10:25:24.777Z,4.89
2022-12-05T10:27:56.741Z,4.95
2022-12-05T10:30:30.091Z,5.09
2022-12-05T10:33:06.462Z,5.16
2022-12-05T10:35:40.201Z,5.09
2022-12-05T10:38:29.074Z,5.01
2022-12-05T10:41:05.769Z,5.10
2022-12-05T10:43:37.258Z,5.03
2022-12-05T10:46:07.844Z,5.04
2022-12-05T10:48:39.111Z,4.99
2022-12-05T10:51:11.468Z,4.87
2022-12-05T10:53:41.569Z,4.88
2022-12-05T10:56:39.534Z,4.72
2022-12-05T10:59:10.130Z,4.78
2022-12-05T11:01:45.104Z,4.88
2022-12-05T11:04:43.460Z,5.06
2022-12-05T11:07:26.390Z,5.05
2022-12-05T11:09:54.582Z,5.10
2022-12-05T11:12:27.045Z,5.35
2022-12-05T11:14:56.682Z,5.26
2022-12-05T11:17:32.514Z,5.31
2022-12-05T11:20:00.934Z,5.35
2022-12-05T11:22:35.133Z,5.25
2022-12-05T11:25:24.610Z,5.28
2022-12-05T11:27:53.579Z,5.26
2022-12-05T11:30:28.044Z,5.30
2022-12-05T11:33:24.844Z,5.47
2022-12-05T11:35:54.635Z,5.55
2022-12-05T11:38:28.011Z,5.50
2022-12-05T11:41:34.111Z,5.45
2022-12-05T11:44:13.996Z,5.44
2022-12-05T11:47:03.759Z,5.42
2022-12-05T11:49:52.989Z,5.45
2022-12-05T11:52:48.634Z,5.27
2022-12-05T11:55:24.706Z,5.25
2022-12-05T11:58:10.747Z,5.10
2022-12-05T12:00:50.731Z,5.05
2022-12-05T12:03:34.588Z,5.03
2022-12-05T12:06:12.787Z,5.07
2022-12-05T12:08:56.741Z,5.33
2022-12-05T12:11:46.871Z,5.45
2022-12-05T12:14:42.746Z,5.36
2022-12-05T12:17:39.077Z,5.35
2022-12-05T12:20:22.284Z,5.35
2022-12-05T12:23:14.807Z,5.35
2022-12-05T12:26:16.565Z,5.27
2022-12-05T12:29:07.467Z,5.49
2022-12-05T12:31:49.981Z,5.40
2022-12-05T12:34:36.123Z,5.36
2022-12-05T12:37:24.301Z,5.30
2022-12-05T12:39:58.891Z,5.30
2022-12-05T12:42:58.014Z,5.24
2022-12-05T12:45:49.028Z,5.28
2022-12-05T12:48:29.329Z,5.27
2022-12-05T12:51:01.326Z,5.47
2022-12-05T12:53:54.839Z,5.33
2022-12-05T12:56:38.600Z,5.46
2022-12-05T12:59:25.031Z,5.50
2022-12-05T13:02:01.905Z,5.61
2022-12-05T13:04:41.915Z,5.53
2022-12-05T13:07:19.140Z,5.62
2022-12-05T13:09:58.894Z,5.54
2022-12-05T13:12:31.625Z,5.63
2022-12-05T13:15:05.557Z,5.63
2022-12-05T13:17:34.099Z,5.59
2022-12-05T13:20:03.137Z,5.64
2022-12-05T13:22:46.712Z,5.77
2022-12-05T13:25:16.982Z,5.77
2022-12-05T13:27:56.905Z,5.66
2022-12-05T13:30:28.344Z,5.53
2022-12-05T13:33:05.030Z,5.51
2022-12-05T13:35:55.881Z,5.42
2022-12-05T13:38:55.767Z,5.26
2022-12-05T13:41:58.291Z,5.33
2022-12-05T13:44:36.781Z,5.26
2022-12-05T13:47:07.703Z,5.10
2022-12-05T13:49:45.757Z,5.09
2022-12-05T13:52:23.955Z,5.16
2022-12-05T13:55:02.708Z,5.23
2022-12-05T13:57:39.099Z,5.24
2022-12-05T14:00:10.280Z,5.26
2022-12-05T14:02:47.455Z,5.42
2022-12-05T14:05:21.274Z,5.49
2022-12-05T14:08:03.608Z,5.55
2022-12-05T14:10:32.077Z,5.53
2022-12-05T14:13:18.096Z,5.53
2022-12-05T14:15:49.236Z,5.60
2022-12-05T14:18:42.404Z,5.59
2022-12-05T14:21:36.385Z,5.61
2022-12-05T14:24:43.490Z,5.54
2022-12-05T14:27:33.694Z,5.52
2022-12-05T14:30:05.030Z,5.44
2022-12-05T14:32:42.405Z,5.33
2022-12-05T14:35:17.656Z,5.25
2022-12-05T14:38:06.839Z,5.32
2022-12-05T14:40:40.490Z,5.32
2022-12-05T14:43:25.212Z,5.33
2022-12-05T14:45:53.247Z,5.30
2022-12-05T14:48:43.904Z,5.38
2022-12-05T14:51:30.559Z,5.39
2022-12-05T14:54:07.682Z,5.41
2022-12-05T14:56:42.401Z,5.53
2022-12-05T14:59:25.692Z,5.68
2022-12-05T15:02:02.668Z,5.65
2022-12-05T15:04:56.509Z,5.74
2022-12-05T15:07:35.974Z,5.76
2022-12-05T15:10:36.148Z,5.70
2022-12-05T15:13:20.661Z,5.76
2022-12-05T15:15:59.228Z,5.74
2022-12-05T15:18:35.412Z,5.74
2022-12-05T15:21:22.841Z,5.70
2022-12-05T15:24:00.351Z,5.69
2022-12-05T15:26:49.648Z,5.68
2022-12-05T15:29:25.569Z,5.67
2022-12-05T15:32:02.811Z,5.75
2022-12-05T15:34:49.875Z,5.79
2022-12-05T15:37:55.850Z,5.79
2022-12-05T15:40:26.192Z,5.76
2022-12-05T15:42:56.796Z,5.80
2022-12-05T15:45:28.217Z,5.86
2022-12-05T15:48:12.491Z,5.80
2022-12-05T15:50:46.885Z,5.85
2022-12-05T15:53:41.567Z,5.80
2022-12-05T15:59:33.401Z,5.70
2022-12-05T16:02:39.653Z,5.69
2022-12-05T16:05:41.207Z,5.64
2022-12-05T16:08:13.045Z,5.71
2022-12-05T16:10:41.216Z,5.70
2022-12-05T16:13:16.406Z,5.78
2022-12-05T16:15:52.474Z,5.84
2022-12-05T16:18:32.461Z,5.81
2022-12-05T16:21:00.603Z,5.85
2022-12-05T16:23:33.558Z,5.89
2022-12-05T16:26:21.421Z,5.87
2022-12-05T16:29:02.280Z,5.90
2022-12-05T16:31:33.308Z,6.01
2022-12-05T16:34:05.661Z,6.15
2022-12-05T16:36:35.360Z,6.24
2022-12-05T16:39:19.570Z,6.12
2022-12-05T16:41:49.871Z,6.12
2022-12-05T16:44:27.101Z,6.06
2022-12-05T16:46:56.926Z,6.05
2022-12-05T16:49:30.937Z,6.02
2022-12-05T16:52:08.757Z,6.11
2022-12-05T16:54:40.300Z,6.22
2022-12-05T16:57:14.032Z,6.26
2022-12-05T16:59:44.179Z,6.31
2022-12-05T17:02:18.477Z,6.26
2022-12-05T17:04:47.677Z,6.34
2022-12-05T17:07:16.142Z,6.52
2022-12-05T17:09:45.185Z,6.53
2022-12-05T17:12:28.481Z,6.55
2022-12-05T17:15:01.179Z,6.47
2022-12-05T17:17:29.691Z,6.53
2022-12-05T17:19:57.977Z,6.62
2022-12-05T17:22:30.223Z,6.57
2022-12-05T17:25:00.750Z,6.61
2022-12-05T17:27:29.152Z,6.58
2022-12-05T17:30:02.421Z,6.57
2022-12-05T17:32:31.119Z,6.61
2022-12-05T17:35:06.481Z,6.70
2022-12-05T17:37:36.059Z,6.76
2022-12-05T17:40:07.430Z,6.81
2022-12-05T17:42:36.088Z,6.87
2022-12-05T17:45:07.471Z,6.78
2022-12-05T17:47:37.036Z,6.72
2022-12-05T17:50:07.308Z,6.69
2022-12-05T17:52:38.575Z,6.78
2022-12-05T17:55:22.442Z,6.76
2022-12-05T17:57:51.600Z,6.85
2022-12-05T18:00:23.565Z,6.89
2022-12-05T18:02:52.815Z,7.03
2022-12-05T18:05:21.785Z,7.10
2022-12-05T18:07:51.268Z,7.12
2022-12-05T18:10:22.219Z,7.09
2022-12-05T18:12:53.066Z,7.08
2022-12-05T18:15:23.781Z,7.12
2022-12-05T18:17:52.113Z,6.98
2022-12-05T18:20:20.239Z,6.94
2022-12-05T18:22:52.408Z,6.76
2022-12-05T18:25:23.985Z,6.80
2022-12-05T18:27:56.035Z,6.93
2022-12-05T18:30:24.981Z,6.88
2022-12-05T18:32:54.049Z,6.84
2022-12-05T18:35:40.493Z,6.72
2022-12-05T18:38:12.638Z,6.85
2022-12-05T18:40:41.144Z,6.96
2022-12-05T18:43:09.225Z,6.94
2022-12-05T18:45:38.311Z,6.83
2022-12-05T18:50:55.182Z,6.93
2022-12-05T18:53:23.312Z,7.11
2022-12-05T18:56:13.706Z,7.02
2022-12-05T18:58:39.697Z,7.02
2022-12-05T19:01:10.846Z,7.01
2022-12-05T19:03:40.285Z,7.10
2022-12-05T19:06:18.606Z,7.12
2022-12-05T19:08:54.617Z,7.09
2022-12-05T19:11:24.333Z,7.10
2022-12-05T19:14:00.885Z,7.10
2022-12-05T19:16:31.937Z,7.13
2022-12-05T19:19:01.679Z,7.21
2022-12-05T19:21:32.857Z,7.20
2022-12-05T19:24:04.242Z,7.30
2022-12-05T19:26:32.830Z,7.34
2022-12-05T19:29:01.076Z,7.39
2022-12-05T19:31:31.005Z,7.41
2022-12-05T19:34:01.992Z,7.53
2022-12-05T19:36:36.360Z,7.46
2022-12-05T19:39:12.178Z,7.45
2022-12-05T19:41:43.598Z,7.41
2022-12-05T19:44:18.768Z,7.36
2022-12-05T19:46:51.711Z,7.40
2022-12-05T19:49:29.059Z,7.39
2022-12-05T19:51:57.954Z,7.39
2022-12-05T19:54:27.008Z,7.44
2022-12-05T19:56:58.464Z,7.34
2022-12-05T19:59:26.953Z,7.42
2022-12-05T20:01:55.784Z,7.41
2022-12-05T20:04:25.690Z,7.41
2022-12-05T20:06:55.825Z,7.43
2022-12-05T20:09:24.247Z,7.46
2022-12-05T20:11:55.872Z,7.52
2022-12-05T20:14:27.892Z,7.62
2022-12-05T20:16:56.240Z,7.67
2022-12-05T20:19:24.922Z,7.74
2022-12-05T20:21:55.726Z,7.80
2022-12-05T20:24:24.670Z,7.82
2022-12-05T20:26:53.652Z,7.82
2022-12-05T20:29:22.430Z,7.81
2022-12-05T20:31:52.807Z,7.84
2022-12-05T20:34:22.014Z,7.90
2022-12-05T20:36:53.403Z,7.94
2022-12-05T20:39:21.848Z,7.94
2022-12-05T20:41:50.838Z,7.96
2022-12-05T20:44:19.344Z,7.97
2022-12-05T20:46:50.869Z,8.04
2022-12-05T20:49:21.059Z,8.07
2022-12-05T20:51:49.236Z,8.07
2022-12-05T20:54:18.528Z,7.99
2022-12-05T20:56:47.677Z,7.76
2022-12-05T20:59:16.798Z,7.55
2022-12-05T21:01:48.424Z,7.48
2022-12-05T21:04:18.038Z,7.42
2022-12-05T21:06:47.155Z,7.20
2022-12-05T21:09:18.413Z,7.21
2022-12-05T21:11:46.424Z,6.99
2022-12-05T21:14:14.916Z,6.73
2022-12-05T21:16:43.053Z,6.62
2022-12-05T21:19:11.454Z,6.71
2022-12-05T21:21:39.484Z,6.66
2022-12-05T21:24:08.229Z,6.70
2022-12-05T21:26:37.813Z,6.83
2022-12-05T21:29:08.366Z,6.90
2022-12-05T21:31:39.480Z,6.91
2022-12-05T21:34:15.891Z,6.92
2022-12-05T21:36:44.989Z,6.76
2022-12-05T21:39:13.995Z,6.70
2022-12-05T21:41:42.137Z,6.70
2022-12-05T21:44:10.488Z,6.77
2022-12-05T21:46:38.631Z,6.84
2022-12-05T21:49:06.746Z,6.94
2022-12-05T21:51:34.796Z,6.97
2022-12-05T21:54:02.815Z,6.92
2022-12-05T21:56:30.771Z,7.10
2022-12-05T21:58:58.693Z,7.27
2022-12-05T22:01:28.666Z,7.20
2022-12-05T22:04:01.768Z,7.04
2022-12-05T22:06:34.275Z,7.00
2022-12-05T22:09:04.710Z,7.14
2022-12-05T22:11:33.668Z,7.28
2022-12-05T22:14:01.619Z,7.27
2022-12-05T22:16:33.069Z,7.21
2022-12-05T22:19:02.500Z,7.36
2022-12-05T22:21:34.367Z,7.45
2022-12-05T22:24:02.704Z,7.41
2022-12-05T22:26:31.148Z,7.46
2022-12-05T22:28:59.537Z,7.39
2022-12-05T22:31:27.807Z,7.32
2022-12-05T22:33:55.705Z,7.41
2022-12-05T22:36:24.407Z,7.21
2022-12-05T22:38:52.651Z,7.02
2022-12-05T22:41:23.667Z,7.10
2022-12-05T22:43:58.277Z,7.30
2022-12-05T22:46:28.424Z,7.40
2022-12-05T22:48:58.397Z,7.32
2022-12-05T22:51:27.540Z,7.37
2022-12-05T22:53:56.361Z,7.51
2022-12-05T22:56:26.835Z,7.55
2022-12-05T22:58:57.105Z,7.66
2022-12-05T23:01:30.813Z,7.73
2022-12-05T23:04:01.906Z,7.69
2022-12-05T23:06:31.756Z,7.68
2022-12-05T23:09:00.549Z,7.61
2022-12-05T23:11:30.809Z,7.32
2022-12-05T23:14:02.214Z,7.22
2022-12-05T23:16:32.824Z,7.36
2022-12-05T23:19:04.657Z,7.41
2022-12-05T23:21:40.382Z,7.40
2022-12-05T23:24:11.626Z,7.33
2022-12-05T23:26:42.420Z,7.13
2022-12-05T23:29:12.499Z,7.15
2022-12-05T23:31:42.112Z,7.27
2022-12-05T23:34:11.130Z,7.33
2022-12-05T23:36:41.298Z,7.40
2022-12-05T23:39:09.421Z,7.50
2022-12-05T23:41:37.337Z,7.47
2022-12-05T23:44:05.114Z,7.47
2022-12-05T23:46:32.995Z,7.53
2022-12-05T23:49:01.008Z,7.63
2022-12-05T23:51:30.970Z,7.71
2022-12-05T23:54:01.086Z,7.71
2022-12-05T23:56:32.420Z,7.75
2022-12-05T23:59:01.904Z,7.78
